createdAt,value
2023-05-19T00:01:38.137Z,101200.28
2023-05-19T00:04:40.978Z,101194.13
2023-05-19T00:07:44.135Z,101199.59
2023-05-19T00:10:46.564Z,101201.44
2023-05-19T00:13:49.688Z,101199.19
2023-05-19T00:16:51.642Z,101168.03
2023-05-19T00:19:54.792Z,101201.34
2023-05-19T00:22:56.539Z,101203.66
2023-05-19T00:25:58.332Z,101206.22
2023-05-19T00:29:00.102Z,101207.22
2023-05-19T00:32:01.953Z,101201.91
2023-05-19T00:35:03.865Z,101193.34
2023-05-19T00:38:06.744Z,101188.41
2023-05-19T00:41:09.017Z,101189.31
2023-05-19T00:44:10.876Z,101194.13
2023-05-19T00:47:12.737Z,101199.31
2023-05-19T00:50:14.517Z,101183.44
2023-05-19T00:53:17.794Z,101182.28
2023-05-19T00:56:20.116Z,101192.28
2023-05-19T00:59:21.967Z,101192.22
2023-05-19T01:02:24.069Z,101186.81
2023-05-19T01:05:25.965Z,101192.22
2023-05-19T01:08:29.001Z,101177.28
2023-05-19T01:11:30.814Z,101180.06
2023-05-19T01:14:32.613Z,101170.28
2023-05-19T01:17:54.704Z,101172.28
2023-05-19T01:21:17.128Z,101173.34
2023-05-19T01:24:22.902Z,101174.69
2023-05-19T01:27:43.663Z,101175.47
2023-05-19T01:30:49.136Z,101171.78
2023-05-19T01:33:53.981Z,101182.37
2023-05-19T01:36:56.160Z,101182.69
2023-05-19T01:39:57.939Z,101178.16
2023-05-19T01:43:01.105Z,101179.87
2023-05-19T01:46:03.291Z,101178.75
2023-05-19T01:49:06.490Z,101181.25
2023-05-19T01:52:08.340Z,101179.41
2023-05-19T01:55:10.386Z,101184.78
2023-05-19T01:58:15.049Z,101186.63
2023-05-19T02:01:28.150Z,101180.38
2023-05-19T02:04:56.352Z,101177.09
2023-05-19T02:08:05.158Z,101176.44
2023-05-19T02:11:16.165Z,101174.06
2023-05-19T02:14:26.125Z,101177.84
2023-05-19T02:17:29.559Z,101173.41
2023-05-19T02:20:32.074Z,101177.34
2023-05-19T02:23:34.039Z,101168.13
2023-05-19T02:26:35.768Z,101172.91
2023-05-19T02:29:37.631Z,101174.81
2023-05-19T02:32:39.608Z,101167.91
2023-05-19T02:35:41.438Z,101163.88
2023-05-19T02:38:43.297Z,101170.13
2023-05-19T02:41:45.133Z,101169.63
2023-05-19T02:44:46.942Z,101170.28
2023-05-19T02:47:48.736Z,101167.66
2023-05-19T02:50:50.604Z,101165.06
2023-05-19T02:53:52.412Z,101169.66
2023-05-19T02:56:54.174Z,101175.06
2023-05-19T02:59:56.282Z,101176.03
2023-05-19T03:03:02.748Z,101174.44
2023-05-19T03:06:05.088Z,101173.88
2023-05-19T03:09:07.314Z,101185.47
2023-05-19T03:12:09.333Z,101188.22
2023-05-19T03:15:13.154Z,101186.63
2023-05-19T03:18:15.029Z,101189.44
2023-05-19T03:21:16.880Z,101184.72
2023-05-19T03:24:18.756Z,101194.62
2023-05-19T03:27:20.666Z,101183.22
2023-05-19T03:30:22.517Z,101187.38
2023-05-19T03:33:24.491Z,101186.31
2023-05-19T03:36:32.008Z,101182.87
2023-05-19T03:39:33.834Z,101185.97
2023-05-19T03:42:35.711Z,101187.88
2023-05-19T03:45:37.511Z,101175.47
2023-05-19T03:48:39.272Z,101181.00
2023-05-19T03:51:41.153Z,101179.28
2023-05-19T03:54:43.215Z,101179.75
2023-05-19T03:57:45.032Z,101173.69
2023-05-19T04:00:47.655Z,101180.19
2023-05-19T04:03:49.521Z,101176.22
2023-05-19T04:06:51.310Z,101182.81
2023-05-19T04:09:53.049Z,101176.28
2023-05-19T04:12:54.813Z,101174.78
2023-05-19T04:15:56.663Z,101183.28
2023-05-19T04:18:58.617Z,101184.47
2023-05-19T04:22:00.386Z,101180.91
2023-05-19T04:25:03.942Z,101191.78
2023-05-19T04:28:06.145Z,101184.59
2023-05-19T04:31:11.172Z,101186.41
2023-05-19T04:34:13.072Z,101181.56
2023-05-19T04:37:18.002Z,101184.03
2023-05-19T04:40:21.170Z,101159.63
2023-05-19T04:43:22.909Z,101169.66
2023-05-19T04:46:26.003Z,101161.91
2023-05-19T04:49:27.811Z,101167.03
2023-05-19T04:52:29.571Z,101184.88
2023-05-19T04:55:31.546Z,101200.66
2023-05-19T04:58:33.344Z,101184.09
2023-05-19T05:01:35.281Z,101189.50
2023-05-19T05:04:37.502Z,101197.19
2023-05-19T05:07:39.344Z,101191.47
2023-05-19T05:10:41.526Z,101177.81
2023-05-19T05:13:43.866Z,101177.84
2023-05-19T05:16:46.529Z,101168.28
2023-05-19T05:19:48.571Z,101150.22
2023-05-19T05:22:50.871Z,101152.41
2023-05-19T05:25:53.005Z,101163.75
2023-05-19T05:28:54.788Z,101167.19
2023-05-19T05:31:56.620Z,101161.66
2023-05-19T05:34:58.947Z,101166.22
2023-05-19T05:38:01.809Z,101161.44
2023-05-19T05:41:03.720Z,101167.75
2023-05-19T05:44:05.595Z,101170.69
2023-05-19T05:47:08.052Z,101159.81
2023-05-19T05:50:10.832Z,101165.37
2023-05-19T05:53:20.711Z,101171.16
2023-05-19T05:56:22.785Z,101184.97
2023-05-19T05:59:24.997Z,101171.44
2023-05-19T06:02:28.305Z,101170.06
2023-05-19T06:05:30.445Z,101195.78
2023-05-19T06:08:32.334Z,101185.94
2023-05-19T06:11:34.225Z,101189.56
2023-05-19T06:14:36.381Z,101183.81
2023-05-19T06:17:38.297Z,101194.91
2023-05-19T06:20:40.137Z,101178.28
2023-05-19T06:23:41.898Z,101183.16
2023-05-19T06:26:43.851Z,101194.28
2023-05-19T06:29:45.786Z,101188.16
2023-05-19T06:32:47.765Z,101182.87
2023-05-19T06:35:49.570Z,101190.09
2023-05-19T06:38:51.809Z,101193.47
2023-05-19T06:41:53.674Z,101199.00
2023-05-19T06:44:55.846Z,101190.41
2023-05-19T06:47:58.507Z,101182.97
2023-05-19T06:51:00.688Z,101197.94
2023-05-19T06:54:02.990Z,101196.06
2023-05-19T06:57:05.053Z,101195.41
2023-05-19T07:00:10.568Z,101181.94
2023-05-19T07:03:12.450Z,101180.94
2023-05-19T07:06:14.556Z,101182.72
2023-05-19T07:09:16.362Z,101179.66
2023-05-19T07:12:18.739Z,101181.12
2023-05-19T07:15:20.582Z,101203.41
2023-05-19T07:18:22.598Z,101177.44
2023-05-19T07:21:24.411Z,101168.28
2023-05-19T07:24:27.557Z,101192.44
2023-05-19T07:27:29.350Z,101180.44
2023-05-19T07:30:31.361Z,101190.22
2023-05-19T07:33:33.432Z,101188.47
2023-05-19T07:36:35.355Z,101173.41
2023-05-19T07:39:37.193Z,101182.59
2023-05-19T07:42:38.999Z,101177.69
2023-05-19T07:45:40.837Z,101179.75
2023-05-19T07:48:42.678Z,101168.53
2023-05-19T07:51:44.513Z,101156.28
2023-05-19T07:54:46.513Z,101175.00
2023-05-19T07:57:49.467Z,101196.34
2023-05-19T08:00:51.479Z,101184.78
2023-05-19T08:03:53.397Z,101158.38
2023-05-19T08:06:55.240Z,101146.09
2023-05-19T08:09:57.223Z,101141.09
2023-05-19T08:12:59.046Z,101135.19
2023-05-19T08:16:00.946Z,101127.59
2023-05-19T08:19:05.424Z,101126.62
2023-05-19T08:22:07.284Z,101103.78
2023-05-19T08:25:09.588Z,101144.50
2023-05-19T08:28:11.439Z,101116.13
2023-05-19T08:31:13.195Z,101140.06
2023-05-19T08:34:15.019Z,101124.03
2023-05-19T08:37:16.827Z,101118.81
2023-05-19T08:40:18.774Z,101118.78
2023-05-19T08:43:20.577Z,101107.81
2023-05-19T08:46:25.331Z,101111.63
2023-05-19T08:49:30.449Z,101114.44
2023-05-19T08:52:53.081Z,101106.31
2023-05-19T08:56:11.070Z,101078.16
2023-05-19T08:59:16.148Z,101069.00
2023-05-19T09:02:18.938Z,101093.00
2023-05-19T09:05:21.068Z,101109.69
2023-05-19T09:08:23.043Z,101088.56
2023-05-19T09:11:24.794Z,101091.44
2023-05-19T09:14:26.805Z,101102.09
2023-05-19T09:17:28.636Z,101067.84
2023-05-19T09:20:30.839Z,101087.50
2023-05-19T09:23:36.183Z,101077.25
2023-05-19T09:26:40.297Z,101106.59
2023-05-19T09:29:43.064Z,101095.28
2023-05-19T09:32:45.596Z,101095.75
2023-05-19T09:35:47.516Z,101077.44
2023-05-19T09:38:49.415Z,101073.84
2023-05-19T09:41:53.813Z,101074.88
2023-05-19T09:45:05.062Z,101073.63
2023-05-19T09:48:07.300Z,101032.53
2023-05-19T09:51:12.294Z,101047.69
2023-05-19T09:54:17.351Z,101073.03
2023-05-19T09:57:27.031Z,101054.47
2023-05-19T10:00:29.556Z,101062.03
2023-05-19T10:03:33.044Z,101046.53
2023-05-19T10:06:34.948Z,101023.97
2023-05-19T10:09:38.123Z,101045.50
2023-05-19T10:12:40.682Z,101051.19
2023-05-19T10:15:57.413Z,101050.16
2023-05-19T10:19:01.924Z,101043.81
2023-05-19T10:22:03.848Z,101022.72
2023-05-19T10:25:06.900Z,101039.84
2023-05-19T10:28:14.248Z,101042.88
2023-05-19T10:31:18.689Z,101042.19
2023-05-19T10:34:33.394Z,101042.03
2023-05-19T10:37:46.821Z,101051.66
2023-05-19T10:40:52.139Z,101070.87
2023-05-19T10:44:18.205Z,101035.75
2023-05-19T10:47:26.480Z,101008.88
2023-05-19T10:50:36.170Z,101025.06
2023-05-19T10:53:41.845Z,101007.13
2023-05-19T10:56:47.312Z,100996.00
2023-05-19T10:59:49.965Z,100992.25
2023-05-19T11:02:56.331Z,100992.25
2023-05-19T11:06:17.555Z,100999.94
2023-05-19T11:09:20.984Z,100991.91
2023-05-19T11:12:27.970Z,101023.50
2023-05-19T11:15:29.857Z,101007.81
2023-05-19T11:18:32.116Z,100992.41
2023-05-19T11:21:55.092Z,100977.59
2023-05-19T11:24:57.452Z,100975.25
2023-05-19T11:27:59.352Z,100985.38
2023-05-19T11:31:02.342Z,100981.44
2023-05-19T11:34:06.839Z,100967.47
2023-05-19T11:37:09.218Z,100970.19
2023-05-19T11:40:13.760Z,100969.00
2023-05-19T11:43:16.786Z,100968.72
2023-05-19T11:46:19.752Z,100970.91
2023-05-19T11:49:21.600Z,100979.16
2023-05-19T11:52:27.487Z,100985.75
2023-05-19T11:55:29.487Z,100939.81
2023-05-19T11:58:31.520Z,100959.41
2023-05-19T12:01:34.543Z,100952.50
2023-05-19T12:04:36.931Z,100959.63
2023-05-19T12:07:39.554Z,100953.88
2023-05-19T12:10:41.675Z,100951.22
2023-05-19T12:13:44.310Z,100949.66
2023-05-19T12:16:46.441Z,100959.00
2023-05-19T12:19:49.215Z,100963.72
2023-05-19T12:22:51.367Z,100943.66
2023-05-19T12:25:53.322Z,100960.19
2023-05-19T12:28:55.252Z,100917.00
2023-05-19T12:31:57.094Z,100952.47
2023-05-19T12:34:59.068Z,100949.91
2023-05-19T12:38:04.986Z,100937.00
2023-05-19T12:41:07.122Z,100933.06
2023-05-19T12:44:16.049Z,100924.87
2023-05-19T12:47:19.966Z,100918.59
2023-05-19T12:50:21.830Z,100912.94
2023-05-19T12:53:26.439Z,100921.78
2023-05-19T12:56:28.380Z,100918.53
2023-05-19T12:59:38.863Z,100908.16
2023-05-19T13:02:57.746Z,100926.50
2023-05-19T13:05:59.885Z,100898.37
2023-05-19T13:09:01.676Z,100872.09
2023-05-19T13:12:04.783Z,100889.41
2023-05-19T13:15:08.213Z,100887.09
2023-05-19T13:18:11.167Z,100893.16
2023-05-19T13:21:13.461Z,100884.06
2023-05-19T13:24:15.202Z,100881.84
2023-05-19T13:27:17.170Z,100886.56
2023-05-19T13:30:19.336Z,100886.50
2023-05-19T13:33:21.595Z,100909.28
2023-05-19T13:36:23.404Z,100887.03
2023-05-19T13:39:25.181Z,100888.59
2023-05-19T13:42:27.170Z,100845.09
2023-05-19T13:45:29.161Z,100857.22
2023-05-19T13:48:31.069Z,100875.06
2023-05-19T13:51:33.043Z,100859.91
2023-05-19T13:54:35.003Z,100865.84
2023-05-19T13:57:37.047Z,100848.81
2023-05-19T14:00:39.125Z,100843.25
2023-05-19T14:03:41.055Z,100841.25
2023-05-19T14:06:42.801Z,100834.72
2023-05-19T14:09:44.564Z,100850.13
2023-05-19T14:13:14.045Z,100847.84
2023-05-19T14:16:09.130Z,100844.13
2023-05-19T14:19:11.676Z,100846.56
2023-05-19T14:22:13.933Z,100847.41
2023-05-19T14:25:15.778Z,100865.06
2023-05-19T14:28:17.484Z,100860.87
2023-05-19T14:31:19.779Z,100855.81
2023-05-19T14:34:21.922Z,100866.31
2023-05-19T14:37:26.573Z,100870.56
2023-05-19T14:40:28.912Z,100856.12
2023-05-19T14:43:31.082Z,100858.44
2023-05-19T14:46:33.275Z,100868.38
2023-05-19T14:49:35.074Z,100862.06
2023-05-19T14:52:37.002Z,100858.00
2023-05-19T14:55:39.064Z,100871.84
2023-05-19T14:58:41.542Z,100863.91
2023-05-19T15:01:46.110Z,100859.78
2023-05-19T15:04:49.044Z,100848.41
2023-05-19T15:07:50.919Z,100844.25
2023-05-19T15:10:52.741Z,100849.38
2023-05-19T15:13:54.956Z,100853.63
2023-05-19T15:16:57.051Z,100863.03
2023-05-19T15:19:58.970Z,100859.44
2023-05-19T15:23:01.391Z,100864.84
2023-05-19T15:26:03.790Z,100867.41
2023-05-19T15:29:05.595Z,100861.09
2023-05-19T15:32:09.105Z,100861.94
2023-05-19T15:35:11.743Z,100861.44
2023-05-19T15:38:13.649Z,100869.84
2023-05-19T15:41:15.836Z,100883.38
2023-05-19T15:44:18.068Z,100860.59
2023-05-19T15:47:21.005Z,100858.34
2023-05-19T15:50:22.958Z,100853.91
2023-05-19T15:53:25.380Z,100867.25
2023-05-19T15:56:27.190Z,100858.69
2023-05-19T15:59:29.026Z,100865.03
2023-05-19T16:02:30.984Z,100875.47
2023-05-19T16:05:33.258Z,100881.94
2023-05-19T16:08:35.390Z,100888.44
2023-05-19T16:11:37.299Z,100898.03
2023-05-19T16:14:39.111Z,100903.47
2023-05-19T16:17:41.225Z,100906.19
2023-05-19T16:20:44.117Z,100912.16
2023-05-19T16:23:45.954Z,100923.19
2023-05-19T16:26:48.657Z,100928.81
2023-05-19T16:29:50.559Z,100924.16
2023-05-19T16:32:54.399Z,100928.63
2023-05-19T16:35:58.556Z,100932.00
2023-05-19T16:39:00.411Z,100928.41
2023-05-19T16:42:02.307Z,100936.06
2023-05-19T16:45:04.534Z,100946.69
2023-05-19T16:48:06.520Z,100956.44
2023-05-19T16:51:08.307Z,100949.75
2023-05-19T16:54:10.079Z,100953.78
2023-05-19T16:57:14.893Z,100954.97
2023-05-19T17:00:16.913Z,100965.91
2023-05-19T17:03:19.056Z,100967.34
2023-05-19T17:06:20.985Z,100968.22
2023-05-19T17:09:25.352Z,100962.56
2023-05-19T17:12:27.216Z,100970.84
2023-05-19T17:15:28.946Z,100967.28
2023-05-19T17:18:31.436Z,100971.25
2023-05-19T17:21:33.699Z,100979.50
2023-05-19T17:24:35.822Z,100971.44
2023-05-19T17:27:37.790Z,100981.81
2023-05-19T17:30:40.094Z,100987.16
2023-05-19T17:33:42.076Z,100988.25
2023-05-19T17:36:43.836Z,100989.87
2023-05-19T17:39:45.605Z,101002.09
2023-05-19T17:42:47.394Z,101006.13
2023-05-19T17:45:49.189Z,101007.72
2023-05-19T17:48:51.275Z,101006.47
2023-05-19T17:51:53.463Z,101004.34
2023-05-19T17:54:55.655Z,101000.19
2023-05-19T17:57:57.810Z,101008.06
2023-05-19T18:00:59.873Z,101006.22
2023-05-19T18:04:02.434Z,100995.31
2023-05-19T18:07:04.750Z,101059.88
2023-05-19T18:10:07.356Z,101033.03
2023-05-19T18:13:10.970Z,101012.00
2023-05-19T18:16:13.174Z,101008.84
2023-05-19T18:19:14.977Z,100995.75
2023-05-19T18:22:17.693Z,100991.09
2023-05-19T18:25:20.901Z,100996.37
2023-05-19T18:28:23.610Z,100992.63
2023-05-19T18:31:25.431Z,100996.81
2023-05-19T18:34:27.723Z,101003.50
2023-05-19T18:37:29.487Z,100999.69
2023-05-19T18:40:31.413Z,101000.25
2023-05-19T18:43:34.384Z,101007.53
2023-05-19T18:46:36.221Z,101007.63
2023-05-19T18:49:38.219Z,101008.56
2023-05-19T18:52:41.102Z,101013.28
2023-05-19T18:55:43.973Z,101015.19
2023-05-19T18:58:46.144Z,101019.72
2023-05-19T19:01:51.254Z,101017.38
2023-05-19T19:04:53.346Z,101001.09
2023-05-19T19:07:55.354Z,101028.69
2023-05-19T19:11:00.239Z,101034.38
2023-05-19T19:14:02.312Z,101035.62
2023-05-19T19:17:04.391Z,101032.56
2023-05-19T19:20:08.122Z,101037.75
2023-05-19T19:23:09.970Z,101038.78
2023-05-19T19:26:11.974Z,101042.84
2023-05-19T19:29:17.031Z,101040.31
2023-05-19T19:32:18.964Z,101050.50
2023-05-19T19:35:20.944Z,101050.16
2023-05-19T19:38:22.693Z,101056.22
2023-05-19T19:41:26.220Z,101048.22
2023-05-19T19:44:27.924Z,101059.06
2023-05-19T19:47:29.902Z,101062.75
2023-05-19T19:50:32.893Z,101077.28
2023-05-19T19:53:34.781Z,101082.66
2023-05-19T19:56:36.780Z,101086.12
2023-05-19T19:59:38.538Z,101083.06
2023-05-19T20:02:51.703Z,101057.31
2023-05-19T20:06:03.073Z,101090.09
2023-05-19T20:09:05.154Z,101064.66
2023-05-19T20:12:07.265Z,101093.19
2023-05-19T20:15:09.594Z,101088.72
2023-05-19T20:18:11.775Z,101094.25
2023-05-19T20:21:13.742Z,101096.34
2023-05-19T20:24:15.449Z,101097.53
2023-05-19T20:27:17.479Z,101103.44
2023-05-19T20:30:19.576Z,101101.59
2023-05-19T20:33:21.584Z,101092.75
2023-05-19T20:36:23.386Z,101094.19
2023-05-19T20:39:25.157Z,101096.16
2023-05-19T20:42:26.949Z,101084.84
2023-05-19T20:45:28.772Z,101085.56
2023-05-19T20:48:30.805Z,101092.53
2023-05-19T20:51:32.746Z,101084.94
2023-05-19T20:54:34.560Z,101084.72
2023-05-19T20:57:36.392Z,101075.88
2023-05-19T21:00:38.195Z,101063.56
2023-05-19T21:03:40.033Z,101076.88
2023-05-19T21:06:41.895Z,101061.88
2023-05-19T21:09:46.614Z,101076.78
2023-05-19T21:12:48.426Z,101074.69
2023-05-19T21:15:50.182Z,101084.13
2023-05-19T21:18:51.986Z,101079.28
2023-05-19T21:21:53.855Z,101084.56
2023-05-19T21:24:55.826Z,101085.41
2023-05-19T21:28:01.090Z,101071.34
2023-05-19T21:31:05.449Z,101072.47
2023-05-19T21:34:07.865Z,101077.13
2023-05-19T21:37:09.875Z,101066.84
2023-05-19T21:40:12.367Z,101065.47
2023-05-19T21:43:14.460Z,101071.56
2023-05-19T21:46:16.207Z,101075.13
2023-05-19T21:49:18.080Z,101076.59
2023-05-19T21:52:19.999Z,101078.56
2023-05-19T21:55:22.130Z,101093.47
2023-05-19T21:58:24.189Z,101094.63
2023-05-19T22:01:26.483Z,101090.97
2023-05-19T22:04:31.522Z,101084.56
2023-05-19T22:07:33.458Z,101083.41
2023-05-19T22:10:37.244Z,101090.44
2023-05-19T22:13:41.180Z,101095.44
2023-05-19T22:16:43.206Z,101090.94
2023-05-19T22:19:45.797Z,101090.22
2023-05-19T22:22:47.502Z,101083.81
2023-05-19T22:25:49.357Z,101077.37
2023-05-19T22:28:51.158Z,101084.72
2023-05-19T22:31:52.991Z,101078.47
2023-05-19T22:34:54.911Z,101068.28
2023-05-19T22:37:56.808Z,101052.84
2023-05-19T22:40:58.657Z,101062.12
2023-05-19T22:44:00.679Z,101058.56
2023-05-19T22:47:03.312Z,101043.87
2023-05-19T22:50:05.653Z,101050.28
2023-05-19T22:53:07.518Z,101041.66
2023-05-19T22:56:09.277Z,101045.09
2023-05-19T22:59:14.405Z,101045.97
2023-05-19T23:02:16.167Z,101037.13
2023-05-19T23:05:17.965Z,101030.44
2023-05-19T23:08:19.700Z,101030.88
2023-05-19T23:11:22.007Z,101018.88
2023-05-19T23:14:25.861Z,101028.25
2023-05-19T23:17:27.689Z,101022.75
2023-05-19T23:20:29.600Z,101023.16
2023-05-19T23:23:31.360Z,101028.34
2023-05-19T23:26:33.189Z,101023.59
2023-05-19T23:29:35.046Z,101022.63
2023-05-19T23:32:36.883Z,101018.53
2023-05-19T23:35:39.587Z,101013.91
2023-05-19T23:38:41.407Z,101016.41
2023-05-19T23:41:43.174Z,101010.13
2023-05-19T23:44:45.041Z,101023.06
2023-05-19T23:47:46.880Z,101025.84
2023-05-19T23:50:48.691Z,101027.44
2023-05-19T23:53:50.445Z,101024.34
2023-05-19T23:56:52.367Z,101013.78
2023-05-19T23:59:54.098Z,101018.41
